createdAt,value
2024-04-17T00:00:28.740Z,0.00
2024-04-17T00:01:19.869Z,0.00
2024-04-17T00:02:10.806Z,0.00
2024-04-17T00:03:01.661Z,0.00
2024-04-17T00:03:52.537Z,0.00
2024-04-17T00:04:43.671Z,0.00
2024-04-17T00:05:34.671Z,0.00
2024-04-17T00:06:25.752Z,0.00
2024-04-17T00:07:16.638Z,0.00
2024-04-17T00:08:07.541Z,0.00
2024-04-17T00:08:58.369Z,0.00
2024-04-17T00:09:49.108Z,0.00
2024-04-17T00:10:40.105Z,0.00
2024-04-17T00:11:31.246Z,0.00
2024-04-17T00:12:22.320Z,0.00
2024-04-17T00:13:13.527Z,0.00
2024-04-17T00:14:04.419Z,0.00
2024-04-17T00:14:55.783Z,0.00
2024-04-17T00:15:46.909Z,0.00
2024-04-17T00:16:37.578Z,0.00
2024-04-17T00:17:28.701Z,0.00
2024-04-17T00:18:19.851Z,0.00
2024-04-17T00:19:10.516Z,0.00
2024-04-17T00:20:01.297Z,0.00
2024-04-17T00:20:52.007Z,0.00
2024-04-17T00:21:43.083Z,0.00
2024-04-17T00:22:34.147Z,0.00
2024-04-17T00:23:24.975Z,0.00
2024-04-17T00:24:15.813Z,0.00
2024-04-17T00:25:06.947Z,0.00
2024-04-17T00:25:58.047Z,0.00
2024-04-17T00:26:48.953Z,0.00
2024-04-17T00:27:40.034Z,0.00
2024-04-17T00:28:31.099Z,0.00
2024-04-17T00:29:22.018Z,0.00
2024-04-17T00:30:13.038Z,0.00
2024-04-17T00:31:03.851Z,0.00
2024-04-17T00:31:55.058Z,0.00
2024-04-17T00:32:46.100Z,0.00
2024-04-17T00:33:37.033Z,0.00
2024-04-17T00:34:27.924Z,0.00
2024-04-17T00:35:18.855Z,0.00
2024-04-17T00:36:09.688Z,0.00
2024-04-17T00:37:00.481Z,0.00
2024-04-17T00:37:51.384Z,0.00
2024-04-17T00:38:42.260Z,0.00
2024-04-17T00:39:33.424Z,0.00
2024-04-17T00:40:24.378Z,0.00
2024-04-17T00:41:15.224Z,0.00
2024-04-17T00:42:06.280Z,0.00
2024-04-17T00:42:57.491Z,0.00
2024-04-17T00:43:48.930Z,0.00
2024-04-17T00:44:39.990Z,0.00
2024-04-17T00:45:31.045Z,0.00
2024-04-17T00:46:22.001Z,0.00
2024-04-17T00:47:12.917Z,0.00
2024-04-17T00:48:04.006Z,0.00
2024-04-17T00:48:54.960Z,0.00
2024-04-17T00:49:45.979Z,0.00
2024-04-17T00:50:37.570Z,0.00
2024-04-17T00:51:27.747Z,0.00
2024-04-17T00:52:18.886Z,0.00
2024-04-17T00:53:09.855Z,0.00
2024-04-17T00:54:00.744Z,0.00
2024-04-17T00:54:51.877Z,0.00
2024-04-17T00:55:43.020Z,0.00
2024-04-17T00:56:34.071Z,0.00
2024-04-17T00:57:24.915Z,0.00
2024-04-17T00:58:15.712Z,0.00
2024-04-17T00:59:06.734Z,0.00
2024-04-17T00:59:57.528Z,0.00
2024-04-17T01:00:48.450Z,0.00
2024-04-17T01:01:39.598Z,0.00
2024-04-17T01:02:30.851Z,0.00
2024-04-17T01:03:21.572Z,0.00
2024-04-17T01:04:12.454Z,0.00
2024-04-17T01:05:03.558Z,0.00
2024-04-17T01:05:54.656Z,0.00
2024-04-17T01:06:45.475Z,0.00
2024-04-17T01:07:36.226Z,0.00
2024-04-17T01:08:26.936Z,0.00
2024-04-17T01:09:17.724Z,0.00
2024-04-17T01:10:08.351Z,0.00
2024-04-17T01:10:59.339Z,0.00
2024-04-17T01:11:50.102Z,0.00
2024-04-17T01:12:41.253Z,0.00
2024-04-17T01:13:32.439Z,0.00
2024-04-17T01:14:23.531Z,0.00
2024-04-17T01:15:14.743Z,0.00
2024-04-17T01:16:06.002Z,0.00
2024-04-17T01:16:56.944Z,0.00
2024-04-17T01:17:47.963Z,0.00
2024-04-17T01:18:39.105Z,0.00
2024-04-17T01:19:30.232Z,0.00
2024-04-17T01:20:21.209Z,0.00
2024-04-17T01:21:12.357Z,0.00
2024-04-17T01:22:03.268Z,0.00
2024-04-17T01:22:54.340Z,0.00
2024-04-17T01:23:45.440Z,0.00
2024-04-17T01:24:36.598Z,0.00
2024-04-17T01:25:27.246Z,0.00
2024-04-17T01:26:18.362Z,0.00
2024-04-17T01:27:09.566Z,0.00
2024-04-17T01:28:00.694Z,0.00
2024-04-17T01:28:51.780Z,0.00
2024-04-17T01:29:42.484Z,0.00
2024-04-17T01:30:33.134Z,0.00
2024-04-17T01:31:24.249Z,0.00
2024-04-17T01:32:15.403Z,0.00
2024-04-17T01:33:06.388Z,0.00
2024-04-17T01:33:57.196Z,0.00
2024-04-17T01:34:47.950Z,0.00
2024-04-17T01:35:38.726Z,0.00
2024-04-17T01:36:29.702Z,0.00
2024-04-17T01:37:20.711Z,0.00
2024-04-17T01:38:11.374Z,0.00
2024-04-17T01:39:02.103Z,0.00
2024-04-17T01:39:52.789Z,0.00
2024-04-17T01:40:44.106Z,0.00
2024-04-17T01:41:34.931Z,0.00
2024-04-17T01:42:25.896Z,0.00
2024-04-17T01:43:16.650Z,0.00
2024-04-17T01:44:07.819Z,0.00
2024-04-17T01:44:58.508Z,0.00
2024-04-17T01:45:49.547Z,0.00
2024-04-17T01:46:40.719Z,0.00
2024-04-17T01:47:31.897Z,0.00
2024-04-17T01:48:22.896Z,0.00
2024-04-17T01:49:13.747Z,0.00
2024-04-17T01:50:04.591Z,0.00
2024-04-17T01:50:55.742Z,0.00
2024-04-17T01:51:46.796Z,0.00
2024-04-17T01:52:38.044Z,0.00
2024-04-17T01:53:29.326Z,0.00
2024-04-17T01:54:20.582Z,0.00
2024-04-17T01:55:11.220Z,0.00
2024-04-17T01:56:02.468Z,0.00
2024-04-17T01:56:53.198Z,0.00
2024-04-17T01:57:44.385Z,0.00
2024-04-17T01:58:35.699Z,0.00
2024-04-17T01:59:26.719Z,0.00
2024-04-17T02:00:17.746Z,0.00
2024-04-17T02:01:08.809Z,0.00
2024-04-17T02:01:59.974Z,0.00
2024-04-17T02:02:51.226Z,0.00
2024-04-17T02:03:42.434Z,0.00
2024-04-17T02:04:33.516Z,0.00
2024-04-17T02:05:24.520Z,0.00
2024-04-17T02:06:15.435Z,0.00
2024-04-17T02:07:06.267Z,0.00
2024-04-17T02:07:57.021Z,0.00
2024-04-17T02:08:47.819Z,0.00
2024-04-17T02:09:38.502Z,0.00
2024-04-17T02:10:29.691Z,0.00
2024-04-17T02:11:20.895Z,0.00
2024-04-17T02:12:12.060Z,0.00
2024-04-17T02:13:03.127Z,0.00
2024-04-17T02:13:53.866Z,0.00
2024-04-17T02:14:44.966Z,0.00
2024-04-17T02:15:35.843Z,0.00
2024-04-17T02:16:26.855Z,0.00
2024-04-17T02:17:17.538Z,0.00
2024-04-17T02:18:08.643Z,0.00
2024-04-17T02:18:59.643Z,0.00
2024-04-17T02:19:50.819Z,0.00
2024-04-17T02:20:41.514Z,0.00
2024-04-17T02:21:32.674Z,0.00
2024-04-17T02:22:23.675Z,0.00
2024-04-17T02:23:14.262Z,0.00
2024-04-17T02:24:05.144Z,0.00
2024-04-17T02:24:55.919Z,0.00
2024-04-17T02:25:46.917Z,0.00
2024-04-17T02:26:37.971Z,0.00
2024-04-17T02:27:28.893Z,0.00
2024-04-17T02:28:20.003Z,0.00
2024-04-17T02:29:11.211Z,0.00
2024-04-17T02:30:02.475Z,0.00
2024-04-17T02:30:53.621Z,0.00
2024-04-17T02:31:44.710Z,0.00
2024-04-17T02:32:35.770Z,0.00
2024-04-17T02:33:26.625Z,0.00
2024-04-17T02:34:17.460Z,0.00
2024-04-17T02:35:08.388Z,0.00
2024-04-17T02:35:59.139Z,0.00
2024-04-17T02:36:50.258Z,0.00
2024-04-17T02:37:41.148Z,0.00
2024-04-17T02:38:32.219Z,0.00
2024-04-17T02:39:23.234Z,0.00
2024-04-17T02:40:14.063Z,0.00
2024-04-17T02:41:04.857Z,0.00
2024-04-17T02:41:55.700Z,0.00
2024-04-17T02:42:46.668Z,0.00
2024-04-17T02:43:37.665Z,0.00
2024-04-17T02:44:28.634Z,0.00
2024-04-17T02:45:19.685Z,0.00
2024-04-17T02:46:10.649Z,0.00
2024-04-17T02:47:01.825Z,0.00
2024-04-17T02:47:52.771Z,0.00
2024-04-17T02:48:43.511Z,0.00
2024-04-17T02:49:34.333Z,0.00
2024-04-17T02:50:25.243Z,0.00
2024-04-17T02:51:16.171Z,0.00
2024-04-17T02:52:07.217Z,0.00
2024-04-17T02:52:58.435Z,0.00
2024-04-17T02:53:49.518Z,0.00
2024-04-17T02:54:40.717Z,0.00
2024-04-17T02:55:31.829Z,0.00
2024-04-17T02:56:22.845Z,0.00
2024-04-17T02:57:13.830Z,0.00
2024-04-17T02:58:04.554Z,0.00
2024-04-17T02:58:55.634Z,0.00
2024-04-17T02:59:46.473Z,0.00
2024-04-17T03:00:37.543Z,0.00
2024-04-17T03:01:28.698Z,0.00
2024-04-17T03:02:19.955Z,0.00
2024-04-17T03:03:10.814Z,0.00
2024-04-17T03:04:01.648Z,0.00
2024-04-17T03:04:52.540Z,0.00
2024-04-17T03:05:43.335Z,0.00
2024-04-17T03:06:34.541Z,0.00
2024-04-17T03:07:25.565Z,0.00
2024-04-17T03:08:16.353Z,0.00
2024-04-17T03:09:09.328Z,0.00
2024-04-17T03:09:57.899Z,0.00
2024-04-17T03:10:48.984Z,0.00
2024-04-17T03:11:40.089Z,0.00
2024-04-17T03:12:31.214Z,0.00
2024-04-17T03:13:22.137Z,0.00
2024-04-17T03:14:13.199Z,0.00
2024-04-17T03:15:04.241Z,0.00
2024-04-17T03:15:55.543Z,0.00
2024-04-17T03:16:46.371Z,0.00
2024-04-17T03:17:37.609Z,0.00
2024-04-17T03:18:28.401Z,0.00
2024-04-17T03:19:18.984Z,0.00
2024-04-17T03:20:09.712Z,0.00
2024-04-17T03:21:00.473Z,0.00
2024-04-17T03:21:51.243Z,0.00
2024-04-17T03:22:42.039Z,0.00
2024-04-17T03:23:32.793Z,0.00
2024-04-17T03:24:23.575Z,0.00
2024-04-17T03:25:14.327Z,0.00
2024-04-17T03:26:05.104Z,0.00
2024-04-17T03:26:55.859Z,0.00
2024-04-17T03:27:46.628Z,0.00
2024-04-17T03:28:37.426Z,0.00
2024-04-17T03:29:28.168Z,0.00
2024-04-17T03:30:18.970Z,0.00
2024-04-17T03:31:09.765Z,0.00
2024-04-17T03:32:00.586Z,0.00
2024-04-17T03:32:51.405Z,0.00
2024-04-17T03:33:42.210Z,0.00
2024-04-17T03:34:33.199Z,0.00
2024-04-17T03:35:23.991Z,0.00
2024-04-17T03:36:14.788Z,0.00
2024-04-17T03:37:05.568Z,0.00
2024-04-17T03:37:56.442Z,0.00
2024-04-17T03:38:47.281Z,0.00
2024-04-17T03:39:38.050Z,0.00
2024-04-17T03:40:28.862Z,0.00
2024-04-17T03:41:19.522Z,0.00
2024-04-17T03:42:10.446Z,0.00
2024-04-17T03:43:01.168Z,0.00
2024-04-17T03:43:51.983Z,0.00
2024-04-17T03:44:42.731Z,0.00
2024-04-17T03:45:33.634Z,0.00
2024-04-17T03:46:24.512Z,0.00
2024-04-17T03:47:15.634Z,0.00
2024-04-17T03:48:06.580Z,0.00
2024-04-17T03:48:57.474Z,0.00
2024-04-17T03:49:48.317Z,0.00
2024-04-17T03:50:39.160Z,0.00
2024-04-17T03:51:29.767Z,0.00
2024-04-17T03:52:20.749Z,0.00
2024-04-17T03:53:11.521Z,0.00
2024-04-17T03:54:02.423Z,0.00
2024-04-17T03:54:53.307Z,0.00
2024-04-17T03:55:44.125Z,0.00
2024-04-17T03:56:34.981Z,0.00
2024-04-17T03:57:26.202Z,0.00
2024-04-17T03:58:17.099Z,0.00
2024-04-17T03:59:07.992Z,0.00
2024-04-17T03:59:58.888Z,0.00
2024-04-17T04:00:49.777Z,0.00
2024-04-17T04:01:40.714Z,0.00
2024-04-17T04:02:31.629Z,0.00
2024-04-17T04:03:22.523Z,0.00
2024-04-17T04:04:13.436Z,0.00
2024-04-17T04:05:04.375Z,0.00
2024-04-17T04:05:55.252Z,0.00
2024-04-17T04:06:46.132Z,0.00
2024-04-17T04:07:37.055Z,0.00
2024-04-17T04:08:27.911Z,0.00
2024-04-17T04:09:18.819Z,0.00
2024-04-17T04:10:09.684Z,0.00
2024-04-17T04:11:00.772Z,0.00
2024-04-17T04:11:51.722Z,0.00
2024-04-17T04:12:42.603Z,0.00
2024-04-17T04:13:33.490Z,0.00
2024-04-17T04:14:24.385Z,0.00
2024-04-17T04:15:15.268Z,0.00
2024-04-17T04:16:06.160Z,0.00
2024-04-17T04:16:57.141Z,0.00
2024-04-17T04:17:48.085Z,0.00
2024-04-17T04:18:38.985Z,0.00
2024-04-17T04:19:29.986Z,0.00
2024-04-17T04:20:20.827Z,0.00
2024-04-17T04:21:11.712Z,0.00
2024-04-17T04:22:02.625Z,0.00
2024-04-17T04:22:53.614Z,0.00
2024-04-17T04:23:44.569Z,0.00
2024-04-17T04:24:35.464Z,0.00
2024-04-17T04:25:26.369Z,0.00
2024-04-17T04:26:17.258Z,0.00
2024-04-17T04:27:08.200Z,0.00
2024-04-17T04:27:59.045Z,0.00
2024-04-17T04:28:49.949Z,0.00
2024-04-17T04:29:40.832Z,0.00
2024-04-17T04:30:31.735Z,0.00
2024-04-17T04:31:22.646Z,0.00
2024-04-17T04:32:13.514Z,0.00
2024-04-17T04:33:04.477Z,0.00
2024-04-17T04:33:55.341Z,0.00
2024-04-17T04:34:46.252Z,0.00
2024-04-17T04:35:37.111Z,5.62
2024-04-17T04:36:28.019Z,5.62
2024-04-17T04:37:18.906Z,5.62
2024-04-17T04:38:09.815Z,5.62
2024-04-17T04:39:00.728Z,5.62
2024-04-17T04:39:51.619Z,5.62
2024-04-17T04:40:42.539Z,5.62
2024-04-17T04:41:33.421Z,5.62
2024-04-17T04:42:24.338Z,5.62
2024-04-17T04:43:15.240Z,5.62
2024-04-17T04:44:06.206Z,5.62
2024-04-17T04:44:57.074Z,5.62
2024-04-17T04:45:47.998Z,5.62
2024-04-17T04:46:38.896Z,5.62
2024-04-17T04:47:29.817Z,5.62
2024-04-17T04:48:20.781Z,5.62
2024-04-17T04:49:11.628Z,5.62
2024-04-17T04:50:02.592Z,5.62
2024-04-17T04:50:53.472Z,5.62
2024-04-17T04:51:44.372Z,5.62
2024-04-17T04:52:35.312Z,5.62
2024-04-17T04:53:26.225Z,5.62
2024-04-17T04:54:17.107Z,5.62
2024-04-17T04:55:07.999Z,5.62
2024-04-17T04:55:59.043Z,5.62
2024-04-17T04:56:49.940Z,5.62
2024-04-17T04:57:40.855Z,5.62
2024-04-17T04:58:31.801Z,11.25
2024-04-17T04:59:22.681Z,11.25
2024-04-17T05:00:13.600Z,11.25
2024-04-17T05:01:08.004Z,11.25
2024-04-17T05:01:55.389Z,11.25
2024-04-17T05:02:46.270Z,11.25
2024-04-17T05:03:37.305Z,11.25
2024-04-17T05:04:28.411Z,11.25
2024-04-17T05:05:19.392Z,11.25
2024-04-17T05:06:10.273Z,11.25
2024-04-17T05:07:01.192Z,11.25
2024-04-17T05:07:52.153Z,11.25
2024-04-17T05:08:43.074Z,11.25
2024-04-17T05:09:33.986Z,11.25
2024-04-17T05:10:24.945Z,11.25
2024-04-17T05:11:15.865Z,11.25
2024-04-17T05:12:06.753Z,11.25
2024-04-17T05:12:57.686Z,11.25
2024-04-17T05:13:48.618Z,11.25
2024-04-17T05:14:39.521Z,11.25
2024-04-17T05:15:30.437Z,11.25
2024-04-17T05:16:21.351Z,11.25
2024-04-17T05:17:12.348Z,11.25
2024-04-17T05:18:03.432Z,11.25
2024-04-17T05:18:54.397Z,11.25
2024-04-17T05:19:45.301Z,11.25
2024-04-17T05:20:36.206Z,11.25
2024-04-17T05:21:27.121Z,16.88
2024-04-17T05:22:18.027Z,16.88
2024-04-17T05:23:08.954Z,16.88
2024-04-17T05:23:59.878Z,16.88
2024-04-17T05:24:50.787Z,16.88
2024-04-17T05:25:41.723Z,16.88
2024-04-17T05:26:32.631Z,16.88
2024-04-17T05:27:23.547Z,16.88
2024-04-17T05:28:14.470Z,16.88
2024-04-17T05:29:05.446Z,16.88
2024-04-17T05:29:56.314Z,16.88
2024-04-17T05:30:47.228Z,16.88
2024-04-17T05:31:38.180Z,16.88
2024-04-17T05:32:29.078Z,16.88
2024-04-17T05:33:20.132Z,16.88
2024-04-17T05:34:11.138Z,16.88
2024-04-17T05:35:02.135Z,16.88
2024-04-17T05:35:53.030Z,16.88
2024-04-17T05:36:43.931Z,16.88
2024-04-17T05:37:34.883Z,16.88
2024-04-17T05:38:25.797Z,16.88
2024-04-17T05:39:16.710Z,16.88
2024-04-17T05:40:07.620Z,16.88
2024-04-17T05:40:58.668Z,16.88
2024-04-17T05:41:49.628Z,16.88
2024-04-17T05:42:40.553Z,16.88
2024-04-17T05:43:31.503Z,16.88
2024-04-17T05:44:22.399Z,16.88
2024-04-17T05:45:13.303Z,16.88
2024-04-17T05:46:04.223Z,16.88
2024-04-17T05:46:55.253Z,22.50
2024-04-17T05:47:46.238Z,22.50
2024-04-17T05:48:37.194Z,22.50
2024-04-17T05:49:28.076Z,22.50
2024-04-17T05:50:19.040Z,22.50
2024-04-17T05:51:09.933Z,22.50
2024-04-17T05:52:00.851Z,22.50
2024-04-17T05:52:51.807Z,22.50
2024-04-17T05:53:42.687Z,22.50
2024-04-17T05:54:33.603Z,22.50
2024-04-17T05:55:24.544Z,22.50
2024-04-17T05:56:15.441Z,22.50
2024-04-17T05:57:06.351Z,22.50
2024-04-17T05:57:57.272Z,22.50
2024-04-17T05:58:48.214Z,22.50
2024-04-17T05:59:39.126Z,22.50
2024-04-17T06:00:30.112Z,22.50
2024-04-17T06:01:21.011Z,22.50
2024-04-17T06:02:11.932Z,22.50
2024-04-17T06:03:03.107Z,22.50
2024-04-17T06:03:54.056Z,22.50
2024-04-17T06:04:44.971Z,22.50
2024-04-17T06:05:36.635Z,22.50
2024-04-17T06:06:26.904Z,28.12
2024-04-17T06:07:17.800Z,28.12
2024-04-17T06:08:08.782Z,28.12
2024-04-17T06:08:59.674Z,28.12
2024-04-17T06:09:50.577Z,28.12
2024-04-17T06:10:41.512Z,28.12
2024-04-17T06:11:32.481Z,28.12
2024-04-17T06:12:23.396Z,28.12
2024-04-17T06:13:14.315Z,28.12
2024-04-17T06:14:07.809Z,28.12
2024-04-17T06:14:56.375Z,28.12
2024-04-17T06:15:47.296Z,28.12
2024-04-17T06:16:38.421Z,28.12
2024-04-17T06:17:29.359Z,28.12
2024-04-17T06:18:20.313Z,28.12
2024-04-17T06:19:11.180Z,28.12
2024-04-17T06:20:02.163Z,28.12
2024-04-17T06:20:53.040Z,28.12
2024-04-17T06:21:43.964Z,28.12
2024-04-17T06:22:34.894Z,28.12
2024-04-17T06:23:25.796Z,28.12
2024-04-17T06:24:16.710Z,28.12
2024-04-17T06:25:07.655Z,28.12
2024-04-17T06:25:58.597Z,28.12
2024-04-17T06:26:49.485Z,28.12
2024-04-17T06:27:40.403Z,28.12
2024-04-17T06:28:31.334Z,28.12
2024-04-17T06:29:22.232Z,28.12
2024-04-17T06:30:16.347Z,28.12
2024-04-17T06:31:04.172Z,28.12
2024-04-17T06:31:55.156Z,28.12
2024-04-17T06:32:46.285Z,28.12
2024-04-17T06:33:37.390Z,28.12
2024-04-17T06:34:28.460Z,28.12
2024-04-17T06:35:19.363Z,28.12
2024-04-17T06:36:10.260Z,28.12
2024-04-17T06:37:01.230Z,28.12
2024-04-17T06:37:52.129Z,33.75
2024-04-17T06:38:43.035Z,33.75
2024-04-17T06:39:33.944Z,33.75
2024-04-17T06:40:24.944Z,33.75
2024-04-17T06:41:15.927Z,33.75
2024-04-17T06:42:06.830Z,33.75
2024-04-17T06:42:57.753Z,33.75
2024-04-17T06:43:48.727Z,33.75
2024-04-17T06:44:39.668Z,33.75
2024-04-17T06:45:30.590Z,33.75
2024-04-17T06:46:21.502Z,33.75
2024-04-17T06:47:12.447Z,33.75
2024-04-17T06:48:03.471Z,33.75
2024-04-17T06:48:54.395Z,33.75
2024-04-17T06:49:45.334Z,33.75
2024-04-17T06:50:36.232Z,33.75
2024-04-17T06:51:27.156Z,33.75
2024-04-17T06:52:18.088Z,33.75
2024-04-17T06:53:09.004Z,33.75
2024-04-17T06:53:59.911Z,33.75
2024-04-17T06:54:50.825Z,33.75
2024-04-17T06:55:41.779Z,33.75
2024-04-17T06:56:32.655Z,33.75
2024-04-17T06:57:23.583Z,33.75
2024-04-17T06:58:14.520Z,33.75
2024-04-17T06:59:05.472Z,33.75
2024-04-17T06:59:56.361Z,33.75
2024-04-17T07:00:47.358Z,33.75
2024-04-17T07:01:38.331Z,39.38
2024-04-17T07:02:29.396Z,39.38
2024-04-17T07:03:20.488Z,39.38
2024-04-17T07:04:11.449Z,39.38
2024-04-17T07:05:02.396Z,39.38
2024-04-17T07:05:53.305Z,39.38
2024-04-17T07:06:44.229Z,39.38
2024-04-17T07:07:35.164Z,39.38
2024-04-17T07:08:26.086Z,39.38
2024-04-17T07:09:17.004Z,39.38
2024-04-17T07:10:07.919Z,39.38
2024-04-17T07:10:58.867Z,39.38
2024-04-17T07:11:51.900Z,39.38
2024-04-17T07:12:40.427Z,39.38
2024-04-17T07:13:31.412Z,39.38
2024-04-17T07:14:22.297Z,39.38
2024-04-17T07:15:13.202Z,39.38
2024-04-17T07:16:04.147Z,39.38
2024-04-17T07:16:55.225Z,39.38
2024-04-17T07:17:46.133Z,39.38
2024-04-17T07:18:37.082Z,39.38
2024-04-17T07:19:27.973Z,45.00
2024-04-17T07:20:18.884Z,45.00
2024-04-17T07:21:09.798Z,45.00
2024-04-17T07:22:00.719Z,45.00
2024-04-17T07:22:51.735Z,45.00
2024-04-17T07:23:42.658Z,45.00
2024-04-17T07:24:33.575Z,45.00
2024-04-17T07:25:24.523Z,45.00
2024-04-17T07:26:15.404Z,45.00
2024-04-17T07:27:06.330Z,45.00
2024-04-17T07:27:57.228Z,45.00
2024-04-17T07:28:48.222Z,45.00
2024-04-17T07:29:39.126Z,45.00
2024-04-17T07:30:30.011Z,45.00
2024-04-17T07:31:20.925Z,45.00
2024-04-17T07:32:12.033Z,45.00
2024-04-17T07:33:03.019Z,45.00
2024-04-17T07:33:53.910Z,45.00
2024-04-17T07:34:44.845Z,45.00
2024-04-17T07:35:35.738Z,50.62
2024-04-17T07:36:26.655Z,50.62
2024-04-17T07:37:17.582Z,50.62
2024-04-17T07:38:08.562Z,50.62
2024-04-17T07:38:59.456Z,50.62
2024-04-17T07:39:50.381Z,50.62
2024-04-17T07:40:41.360Z,50.62
2024-04-17T07:41:32.286Z,50.62
2024-04-17T07:42:23.167Z,50.62
2024-04-17T07:43:14.087Z,50.62
2024-04-17T07:44:05.053Z,50.62
2024-04-17T07:44:55.932Z,50.62
2024-04-17T07:45:46.844Z,56.25
2024-04-17T07:46:37.814Z,56.25
2024-04-17T07:47:28.804Z,56.25
2024-04-17T07:48:19.783Z,56.25
2024-04-17T07:49:10.721Z,56.25
2024-04-17T07:50:01.733Z,56.25
2024-04-17T07:50:52.595Z,56.25
2024-04-17T07:51:43.520Z,56.25
2024-04-17T07:52:34.463Z,56.25
2024-04-17T07:53:25.363Z,56.25
2024-04-17T07:54:16.268Z,56.25
2024-04-17T07:55:07.209Z,56.25
2024-04-17T07:55:58.187Z,56.25
2024-04-17T07:56:49.112Z,56.25
2024-04-17T07:57:40.031Z,56.25
2024-04-17T07:58:30.983Z,56.25
2024-04-17T07:59:21.874Z,56.25
2024-04-17T08:00:12.797Z,56.25
2024-04-17T08:01:03.735Z,61.88
2024-04-17T08:01:54.688Z,61.88
2024-04-17T08:02:45.655Z,61.88
2024-04-17T08:03:36.574Z,61.88
2024-04-17T08:04:27.489Z,61.88
2024-04-17T08:05:18.411Z,61.88
2024-04-17T08:06:09.522Z,61.88
2024-04-17T08:07:00.448Z,61.88
2024-04-17T08:07:51.458Z,61.88
2024-04-17T08:08:42.335Z,61.88
2024-04-17T08:09:33.247Z,61.88
2024-04-17T08:10:25.213Z,67.50
2024-04-17T08:11:15.007Z,67.50
2024-04-17T08:12:06.008Z,67.50
2024-04-17T08:12:56.928Z,67.50
2024-04-17T08:13:47.887Z,67.50
2024-04-17T08:14:38.786Z,67.50
2024-04-17T08:15:29.721Z,67.50
2024-04-17T08:16:20.648Z,67.50
2024-04-17T08:17:11.649Z,67.50
2024-04-17T08:18:02.732Z,67.50
2024-04-17T08:18:53.661Z,67.50
2024-04-17T08:19:44.758Z,67.50
2024-04-17T08:20:35.674Z,67.50
2024-04-17T08:21:26.594Z,67.50
2024-04-17T08:22:17.545Z,73.12
2024-04-17T08:23:08.615Z,73.12
2024-04-17T08:23:59.538Z,73.12
2024-04-17T08:24:50.465Z,73.12
2024-04-17T08:25:41.658Z,73.12
2024-04-17T08:26:32.013Z,73.12
2024-04-17T08:27:22.935Z,73.12
2024-04-17T08:28:14.659Z,73.12
2024-04-17T08:29:04.967Z,78.75
2024-04-17T08:29:55.873Z,78.75
2024-04-17T08:30:46.806Z,78.75
2024-04-17T08:31:37.776Z,78.75
2024-04-17T08:32:28.699Z,78.75
2024-04-17T08:33:19.777Z,84.38
2024-04-17T08:34:10.737Z,84.38
2024-04-17T08:35:01.708Z,84.38
2024-04-17T08:35:52.638Z,84.38
2024-04-17T08:36:43.559Z,84.38
2024-04-17T08:37:34.529Z,84.38
2024-04-17T08:38:25.572Z,84.38
2024-04-17T08:39:16.674Z,90.00
2024-04-17T08:40:07.545Z,90.00
2024-04-17T08:40:58.523Z,90.00
2024-04-17T08:41:49.527Z,90.00
2024-04-17T08:42:40.425Z,95.62
2024-04-17T08:43:31.413Z,95.62
2024-04-17T08:44:22.322Z,95.62
2024-04-17T08:45:13.253Z,95.62
2024-04-17T08:46:04.206Z,101.25
2024-04-17T08:46:55.170Z,101.25
2024-04-17T08:47:46.156Z,101.25
2024-04-17T08:48:37.159Z,106.88
2024-04-17T08:49:28.170Z,106.88
2024-04-17T08:50:19.095Z,112.50
2024-04-17T08:51:10.035Z,112.50
2024-04-17T08:52:00.991Z,118.12
2024-04-17T08:52:51.944Z,118.12
2024-04-17T08:53:42.871Z,118.12
2024-04-17T08:54:33.859Z,123.75
2024-04-17T08:55:24.794Z,123.75
2024-04-17T08:56:15.712Z,129.38
2024-04-17T08:57:06.663Z,129.38
2024-04-17T08:57:57.603Z,135.00
2024-04-17T08:58:48.585Z,140.62
2024-04-17T08:59:39.488Z,140.62
2024-04-17T09:00:30.431Z,146.25
2024-04-17T09:01:21.451Z,151.88
2024-04-17T09:02:12.465Z,157.50
2024-04-17T09:03:03.545Z,163.12
2024-04-17T09:03:54.531Z,168.75
2024-04-17T09:04:45.558Z,174.38
2024-04-17T09:05:36.452Z,174.38
2024-04-17T09:06:27.398Z,180.00
2024-04-17T09:07:18.358Z,185.62
2024-04-17T09:08:09.323Z,191.25
2024-04-17T09:09:00.245Z,191.25
2024-04-17T09:09:51.195Z,196.88
2024-04-17T09:10:42.164Z,196.88
2024-04-17T09:11:33.105Z,202.50
2024-04-17T09:12:24.041Z,202.50
2024-04-17T09:13:14.964Z,208.12
2024-04-17T09:14:05.936Z,208.12
2024-04-17T09:14:57.396Z,208.12
2024-04-17T09:15:47.751Z,208.12
2024-04-17T09:16:38.741Z,213.75
2024-04-17T09:17:30.693Z,213.75
2024-04-17T09:18:20.801Z,213.75
2024-04-17T09:19:11.819Z,213.75
2024-04-17T09:20:02.833Z,213.75
2024-04-17T09:20:53.821Z,213.75
2024-04-17T09:21:44.780Z,219.38
2024-04-17T09:22:35.815Z,219.38
2024-04-17T09:23:26.717Z,219.38
2024-04-17T09:24:17.659Z,219.38
2024-04-17T09:25:08.608Z,219.38
2024-04-17T09:25:59.580Z,219.38
2024-04-17T09:26:50.513Z,219.38
2024-04-17T09:27:41.458Z,225.00
2024-04-17T09:28:32.443Z,225.00
2024-04-17T09:29:23.367Z,225.00
2024-04-17T09:30:14.329Z,225.00
2024-04-17T09:31:05.248Z,225.00
2024-04-17T09:31:56.414Z,225.00
2024-04-17T09:32:46.855Z,225.00
2024-04-17T09:33:37.788Z,225.00
2024-04-17T09:34:28.720Z,225.00
2024-04-17T09:35:19.669Z,225.00
2024-04-17T09:36:10.595Z,225.00
2024-04-17T09:37:01.537Z,225.00
2024-04-17T09:37:52.504Z,225.00
2024-04-17T09:38:43.449Z,225.00
2024-04-17T09:39:34.389Z,219.38
2024-04-17T09:40:25.402Z,219.38
2024-04-17T09:41:16.329Z,219.38
2024-04-17T09:42:07.274Z,219.38
2024-04-17T09:43:03.914Z,219.38
2024-04-17T09:43:50.172Z,219.38
2024-04-17T09:44:39.962Z,219.38
2024-04-17T09:45:30.881Z,219.38
2024-04-17T09:46:21.921Z,219.38
2024-04-17T09:47:13.080Z,213.75
2024-04-17T09:48:03.488Z,213.75
2024-04-17T09:48:54.409Z,213.75
2024-04-17T09:49:45.403Z,208.12
2024-04-17T09:50:36.330Z,208.12
2024-04-17T09:51:27.272Z,208.12
2024-04-17T09:52:18.555Z,202.50
2024-04-17T09:53:13.855Z,202.50
2024-04-17T09:54:00.822Z,196.88
2024-04-17T09:54:50.552Z,196.88
2024-04-17T09:55:41.531Z,196.88
2024-04-17T09:56:32.447Z,151.88
2024-04-17T09:57:23.396Z,157.50
2024-04-17T09:58:14.344Z,191.25
2024-04-17T09:59:08.570Z,191.25
2024-04-17T09:59:56.449Z,191.25
2024-04-17T10:00:47.426Z,185.62
2024-04-17T10:01:38.737Z,185.62
2024-04-17T10:02:29.246Z,185.62
2024-04-17T10:03:20.165Z,185.62
2024-04-17T10:04:13.153Z,185.62
2024-04-17T10:05:02.288Z,185.62
2024-04-17T10:05:53.212Z,185.62
2024-04-17T10:06:44.388Z,101.25
2024-04-17T10:07:35.377Z,101.25
2024-04-17T10:08:26.302Z,90.00
2024-04-17T10:09:17.264Z,118.12
2024-04-17T10:10:08.253Z,191.25
2024-04-17T10:10:59.286Z,191.25
2024-04-17T10:11:50.273Z,191.25
2024-04-17T10:12:41.175Z,191.25
2024-04-17T10:13:32.142Z,191.25
2024-04-17T10:14:23.128Z,191.25
2024-04-17T10:15:14.097Z,191.25
2024-04-17T10:16:05.029Z,191.25
2024-04-17T10:16:56.077Z,196.88
2024-04-17T10:17:47.231Z,191.25
2024-04-17T10:18:38.336Z,191.25
2024-04-17T10:19:29.315Z,191.25
2024-04-17T10:20:20.246Z,185.62
2024-04-17T10:21:11.173Z,191.25
2024-04-17T10:22:02.124Z,118.12
2024-04-17T10:22:53.132Z,174.38
2024-04-17T10:23:44.070Z,157.50
2024-04-17T10:24:35.010Z,90.00
2024-04-17T10:25:32.035Z,78.75
2024-04-17T10:26:17.981Z,78.75
2024-04-17T10:27:07.685Z,73.12
2024-04-17T10:27:58.600Z,73.12
2024-04-17T10:28:49.559Z,78.75
2024-04-17T10:29:40.464Z,78.75
2024-04-17T10:30:31.400Z,84.38
2024-04-17T10:31:22.335Z,90.00
2024-04-17T10:32:13.272Z,90.00
2024-04-17T10:33:04.238Z,106.88
2024-04-17T10:33:55.637Z,95.62
2024-04-17T10:34:45.942Z,112.50
2024-04-17T10:35:36.832Z,101.25
2024-04-17T10:36:27.767Z,106.88
2024-04-17T10:37:18.881Z,196.88
2024-04-17T10:38:20.171Z,196.88
2024-04-17T10:39:01.813Z,202.50
2024-04-17T10:39:51.495Z,208.12
2024-04-17T10:40:42.456Z,213.75
2024-04-17T10:41:33.400Z,208.12
2024-04-17T10:42:24.333Z,129.38
2024-04-17T10:43:15.285Z,95.62
2024-04-17T10:44:06.280Z,90.00
2024-04-17T10:44:57.216Z,90.00
2024-04-17T10:45:48.140Z,84.38
2024-04-17T10:46:39.150Z,78.75
2024-04-17T10:47:30.026Z,78.75
2024-04-17T10:48:21.089Z,73.12
2024-04-17T10:49:12.014Z,67.50
2024-04-17T10:50:03.109Z,61.88
2024-04-17T10:50:54.099Z,61.88
2024-04-17T10:51:45.015Z,56.25
2024-04-17T10:52:35.935Z,50.62
2024-04-17T10:53:26.871Z,50.62
2024-04-17T10:54:17.780Z,50.62
2024-04-17T10:55:08.702Z,45.00
2024-04-17T10:55:59.634Z,45.00
2024-04-17T10:56:50.553Z,39.38
2024-04-17T10:57:41.457Z,39.38
2024-04-17T10:58:32.397Z,39.38
2024-04-17T10:59:23.324Z,39.38
2024-04-17T11:00:14.242Z,39.38
2024-04-17T11:01:05.168Z,39.38
2024-04-17T11:01:56.170Z,39.38